sensor_id;sensor_type;location;lat;lon;timestamp;P1;durP1;ratioP1;P2;durP2;ratioP2
75818;SDS011;64453;51.944;9.796;2023-06-24T00:00:29;7.97;;;3.97;;
75818;SDS011;64453;51.944;9.796;2023-06-24T00:02:57;13.20;;;4.90;;
75818;SDS011;64453;51.944;9.796;2023-06-24T00:05:26;16.63;;;4.20;;
75818;SDS011;64453;51.944;9.796;2023-06-24T00:07:54;5.20;;;3.57;;
75818;SDS011;64453;51.944;9.796;2023-06-24T00:10:22;10.90;;;4.30;;
75818;SDS011;64453;51.944;9.796;2023-06-24T00:12:49;12.90;;;3.10;;
75818;SDS011;64453;51.944;9.796;2023-06-24T00:15:16;9.93;;;4.10;;
75818;SDS011;64453;51.944;9.796;2023-06-24T00:17:43;18.23;;;4.33;;
75818;SDS011;64453;51.944;9.796;2023-06-24T00:20:12;12.40;;;4.63;;
75818;SDS011;64453;51.944;9.796;2023-06-24T00:22:39;9.33;;;3.80;;
75818;SDS011;64453;51.944;9.796;2023-06-24T00:25:13;13.10;;;3.87;;
75818;SDS011;64453;51.944;9.796;2023-06-24T00:27:41;9.63;;;4.23;;
75818;SDS011;64453;51.944;9.796;2023-06-24T00:30:08;12.33;;;3.80;;
75818;SDS011;64453;51.944;9.796;2023-06-24T00:32:36;12.33;;;4.40;;
75818;SDS011;64453;51.944;9.796;2023-06-24T00:35:04;19.07;;;3.93;;
75818;SDS011;64453;51.944;9.796;2023-06-24T00:37:33;9.73;;;3.50;;
75818;SDS011;64453;51.944;9.796;2023-06-24T00:39:59;7.57;;;4.33;;
75818;SDS011;64453;51.944;9.796;2023-06-24T00:42:28;15.13;;;4.07;;
75818;SDS011;64453;51.944;9.796;2023-06-24T00:44:55;11.17;;;4.17;;
75818;SDS011;64453;51.944;9.796;2023-06-24T00:47:22;9.17;;;4.17;;
75818;SDS011;64453;51.944;9.796;2023-06-24T00:49:50;8.10;;;3.93;;
75818;SDS011;64453;51.944;9.796;2023-06-24T00:52:16;8.43;;;3.63;;
75818;SDS011;64453;51.944;9.796;2023-06-24T00:54:45;13.60;;;4.07;;
75818;SDS011;64453;51.944;9.796;2023-06-24T00:57:12;25.13;;;3.97;;
75818;SDS011;64453;51.944;9.796;2023-06-24T00:59:39;10.43;;;4.00;;
75818;SDS011;64453;51.944;9.796;2023-06-24T01:02:08;7.47;;;3.83;;
75818;SDS011;64453;51.944;9.796;2023-06-24T01:04:35;7.23;;;3.47;;
75818;SDS011;64453;51.944;9.796;2023-06-24T01:07:03;11.63;;;3.80;;
75818;SDS011;64453;51.944;9.796;2023-06-24T01:09:31;14.10;;;3.30;;
75818;SDS011;64453;51.944;9.796;2023-06-24T01:12:00;12.47;;;3.47;;
75818;SDS011;64453;51.944;9.796;2023-06-24T01:14:27;12.83;;;4.07;;
75818;SDS011;64453;51.944;9.796;2023-06-24T01:16:56;4.30;;;3.10;;
75818;SDS011;64453;51.944;9.796;2023-06-24T01:19:37;8.30;;;3.20;;
75818;SDS011;64453;51.944;9.796;2023-06-24T01:22:33;7.60;;;3.70;;
75818;SDS011;64453;51.944;9.796;2023-06-24T01:25:23;6.50;;;2.93;;
75818;SDS011;64453;51.944;9.796;2023-06-24T01:28:23;11.53;;;3.90;;
75818;SDS011;64453;51.944;9.796;2023-06-24T01:31:17;7.03;;;3.37;;
75818;SDS011;64453;51.944;9.796;2023-06-24T01:33:56;15.90;;;3.40;;
75818;SDS011;64453;51.944;9.796;2023-06-24T01:36:28;8.93;;;3.77;;
75818;SDS011;64453;51.944;9.796;2023-06-24T01:39:01;9.80;;;3.70;;
75818;SDS011;64453;51.944;9.796;2023-06-24T01:41:31;7.40;;;3.17;;
75818;SDS011;64453;51.944;9.796;2023-06-24T01:44:03;10.27;;;3.30;;
75818;SDS011;64453;51.944;9.796;2023-06-24T01:46:32;7.80;;;3.93;;
75818;SDS011;64453;51.944;9.796;2023-06-24T01:48:59;10.30;;;3.70;;
75818;SDS011;64453;51.944;9.796;2023-06-24T01:51:29;5.07;;;3.13;;
75818;SDS011;64453;51.944;9.796;2023-06-24T01:54:00;10.13;;;2.97;;
75818;SDS011;64453;51.944;9.796;2023-06-24T01:56:31;8.80;;;3.47;;
75818;SDS011;64453;51.944;9.796;2023-06-24T01:59:00;10.93;;;4.30;;
75818;SDS011;64453;51.944;9.796;2023-06-24T02:01:31;14.93;;;3.40;;
75818;SDS011;64453;51.944;9.796;2023-06-24T02:03:59;7.03;;;4.43;;
75818;SDS011;64453;51.944;9.796;2023-06-24T02:06:28;12.33;;;3.80;;
75818;SDS011;64453;51.944;9.796;2023-06-24T02:08:57;11.43;;;3.10;;
75818;SDS011;64453;51.944;9.796;2023-06-24T02:11:26;12.53;;;3.70;;
75818;SDS011;64453;51.944;9.796;2023-06-24T02:13:56;6.37;;;3.07;;
75818;SDS011;64453;51.944;9.796;2023-06-24T02:16:27;5.43;;;2.80;;
75818;SDS011;64453;51.944;9.796;2023-06-24T02:18:57;9.80;;;3.40;;
75818;SDS011;64453;51.944;9.796;2023-06-24T02:21:24;11.00;;;3.93;;
75818;SDS011;64453;51.944;9.796;2023-06-24T02:23:53;7.27;;;4.10;;
75818;SDS011;64453;51.944;9.796;2023-06-24T02:26:21;7.23;;;3.30;;
75818;SDS011;64453;51.944;9.796;2023-06-24T02:28:49;8.53;;;3.87;;
75818;SDS011;64453;51.944;9.796;2023-06-24T02:31:17;5.93;;;3.50;;
75818;SDS011;64453;51.944;9.796;2023-06-24T02:33:44;7.30;;;3.03;;
75818;SDS011;64453;51.944;9.796;2023-06-24T02:36:12;9.23;;;3.27;;
75818;SDS011;64453;51.944;9.796;2023-06-24T02:38:39;3.10;;;2.90;;
75818;SDS011;64453;51.944;9.796;2023-06-24T02:41:06;14.43;;;3.50;;
75818;SDS011;64453;51.944;9.796;2023-06-24T02:43:33;11.53;;;2.80;;
75818;SDS011;64453;51.944;9.796;2023-06-24T02:46:01;10.30;;;3.33;;
75818;SDS011;64453;51.944;9.796;2023-06-24T02:48:29;5.50;;;3.30;;
75818;SDS011;64453;51.944;9.796;2023-06-24T02:50:58;5.73;;;3.20;;
75818;SDS011;64453;51.944;9.796;2023-06-24T02:53:28;6.40;;;3.37;;
75818;SDS011;64453;51.944;9.796;2023-06-24T02:55:55;9.10;;;3.20;;
75818;SDS011;64453;51.944;9.796;2023-06-24T02:58:23;15.73;;;4.00;;
75818;SDS011;64453;51.944;9.796;2023-06-24T03:00:56;9.53;;;3.50;;
75818;SDS011;64453;51.944;9.796;2023-06-24T03:03:25;5.30;;;3.23;;
75818;SDS011;64453;51.944;9.796;2023-06-24T03:05:53;10.83;;;3.40;;
75818;SDS011;64453;51.944;9.796;2023-06-24T03:08:22;7.20;;;3.10;;
75818;SDS011;64453;51.944;9.796;2023-06-24T03:10:51;6.37;;;3.70;;
75818;SDS011;64453;51.944;9.796;2023-06-24T03:13:20;11.73;;;3.37;;
75818;SDS011;64453;51.944;9.796;2023-06-24T03:15:48;8.20;;;3.50;;
75818;SDS011;64453;51.944;9.796;2023-06-24T03:18:15;4.30;;;2.73;;
75818;SDS011;64453;51.944;9.796;2023-06-24T03:20:42;8.47;;;3.17;;
75818;SDS011;64453;51.944;9.796;2023-06-24T03:23:11;7.23;;;3.30;;
75818;SDS011;64453;51.944;9.796;2023-06-24T03:25:38;5.50;;;3.10;;
75818;SDS011;64453;51.944;9.796;2023-06-24T03:28:06;11.53;;;3.37;;
75818;SDS011;64453;51.944;9.796;2023-06-24T03:30:33;8.97;;;3.33;;
75818;SDS011;64453;51.944;9.796;2023-06-24T03:33:00;9.70;;;3.73;;
75818;SDS011;64453;51.944;9.796;2023-06-24T03:35:27;4.43;;;2.80;;
75818;SDS011;64453;51.944;9.796;2023-06-24T03:37:54;5.50;;;2.80;;
75818;SDS011;64453;51.944;9.796;2023-06-24T03:40:21;9.93;;;3.30;;
75818;SDS011;64453;51.944;9.796;2023-06-24T03:42:48;6.00;;;3.60;;
75818;SDS011;64453;51.944;9.796;2023-06-24T03:45:16;6.87;;;3.33;;
75818;SDS011;64453;51.944;9.796;2023-06-24T03:47:43;10.10;;;3.10;;
75818;SDS011;64453;51.944;9.796;2023-06-24T03:50:10;4.50;;;3.50;;
75818;SDS011;64453;51.944;9.796;2023-06-24T03:52:37;11.37;;;5.70;;
75818;SDS011;64453;51.944;9.796;2023-06-24T03:55:04;7.47;;;3.30;;
75818;SDS011;64453;51.944;9.796;2023-06-24T03:57:31;8.00;;;3.53;;
75818;SDS011;64453;51.944;9.796;2023-06-24T03:59:58;3.43;;;3.20;;
75818;SDS011;64453;51.944;9.796;2023-06-24T04:02:27;9.30;;;3.70;;
75818;SDS011;64453;51.944;9.796;2023-06-24T04:04:54;4.90;;;3.83;;
75818;SDS011;64453;51.944;9.796;2023-06-24T04:07:21;15.13;;;3.70;;
75818;SDS011;64453;51.944;9.796;2023-06-24T04:09:53;5.87;;;4.13;;
75818;SDS011;64453;51.944;9.796;2023-06-24T04:12:21;3.70;;;3.10;;
75818;SDS011;64453;51.944;9.796;2023-06-24T04:14:48;10.00;;;3.70;;
75818;SDS011;64453;51.944;9.796;2023-06-24T04:17:16;9.87;;;4.27;;
75818;SDS011;64453;51.944;9.796;2023-06-24T04:19:44;9.50;;;3.90;;
75818;SDS011;64453;51.944;9.796;2023-06-24T04:22:11;4.20;;;3.77;;
75818;SDS011;64453;51.944;9.796;2023-06-24T04:24:38;10.07;;;4.23;;
75818;SDS011;64453;51.944;9.796;2023-06-24T04:27:05;6.90;;;3.63;;
75818;SDS011;64453;51.944;9.796;2023-06-24T04:29:34;7.87;;;3.77;;
75818;SDS011;64453;51.944;9.796;2023-06-24T04:32:01;7.90;;;4.47;;
75818;SDS011;64453;51.944;9.796;2023-06-24T04:34:28;7.20;;;3.73;;
75818;SDS011;64453;51.944;9.796;2023-06-24T04:36:56;4.73;;;4.13;;
75818;SDS011;64453;51.944;9.796;2023-06-24T04:39:23;6.83;;;3.63;;
75818;SDS011;64453;51.944;9.796;2023-06-24T04:41:50;8.30;;;4.53;;
75818;SDS011;64453;51.944;9.796;2023-06-24T04:44:17;7.60;;;4.30;;
75818;SDS011;64453;51.944;9.796;2023-06-24T04:46:45;10.17;;;4.67;;
75818;SDS011;64453;51.944;9.796;2023-06-24T04:49:12;5.10;;;4.57;;
75818;SDS011;64453;51.944;9.796;2023-06-24T04:51:39;4.17;;;3.80;;
75818;SDS011;64453;51.944;9.796;2023-06-24T04:54:09;12.90;;;5.30;;
75818;SDS011;64453;51.944;9.796;2023-06-24T04:56:38;8.23;;;4.30;;
75818;SDS011;64453;51.944;9.796;2023-06-24T04:59:05;5.77;;;4.33;;
75818;SDS011;64453;51.944;9.796;2023-06-24T05:01:32;5.03;;;4.60;;
75818;SDS011;64453;51.944;9.796;2023-06-24T05:03:59;5.40;;;4.50;;
75818;SDS011;64453;51.944;9.796;2023-06-24T05:06:26;7.07;;;4.67;;
75818;SDS011;64453;51.944;9.796;2023-06-24T05:08:53;6.20;;;5.00;;
75818;SDS011;64453;51.944;9.796;2023-06-24T05:11:21;5.10;;;4.70;;
75818;SDS011;64453;51.944;9.796;2023-06-24T05:13:48;5.97;;;5.37;;
75818;SDS011;64453;51.944;9.796;2023-06-24T05:16:14;5.07;;;4.57;;
75818;SDS011;64453;51.944;9.796;2023-06-24T05:18:42;7.90;;;5.40;;
75818;SDS011;64453;51.944;9.796;2023-06-24T05:21:10;6.40;;;5.50;;
75818;SDS011;64453;51.944;9.796;2023-06-24T05:23:36;4.87;;;4.20;;
75818;SDS011;64453;51.944;9.796;2023-06-24T05:26:03;5.67;;;5.03;;
75818;SDS011;64453;51.944;9.796;2023-06-24T05:28:32;5.33;;;4.73;;
75818;SDS011;64453;51.944;9.796;2023-06-24T05:30:58;5.70;;;5.10;;
75818;SDS011;64453;51.944;9.796;2023-06-24T05:33:25;7.40;;;4.90;;
75818;SDS011;64453;51.944;9.796;2023-06-24T05:35:52;6.27;;;4.90;;
75818;SDS011;64453;51.944;9.796;2023-06-24T05:38:19;6.23;;;4.80;;
75818;SDS011;64453;51.944;9.796;2023-06-24T05:40:46;4.97;;;4.53;;
75818;SDS011;64453;51.944;9.796;2023-06-24T05:43:13;5.20;;;4.80;;
75818;SDS011;64453;51.944;9.796;2023-06-24T05:45:41;5.57;;;4.50;;
75818;SDS011;64453;51.944;9.796;2023-06-24T05:48:08;5.07;;;4.67;;
75818;SDS011;64453;51.944;9.796;2023-06-24T05:50:35;5.77;;;5.20;;
75818;SDS011;64453;51.944;9.796;2023-06-24T05:53:02;5.17;;;4.67;;
75818;SDS011;64453;51.944;9.796;2023-06-24T05:55:29;6.20;;;4.93;;
75818;SDS011;64453;51.944;9.796;2023-06-24T05:57:56;8.00;;;4.50;;
75818;SDS011;64453;51.944;9.796;2023-06-24T06:00:23;5.77;;;4.77;;
75818;SDS011;64453;51.944;9.796;2023-06-24T06:02:51;6.60;;;5.10;;
75818;SDS011;64453;51.944;9.796;2023-06-24T06:05:18;7.10;;;5.23;;
75818;SDS011;64453;51.944;9.796;2023-06-24T06:07:45;5.57;;;5.03;;
75818;SDS011;64453;51.944;9.796;2023-06-24T06:10:13;5.50;;;4.70;;
75818;SDS011;64453;51.944;9.796;2023-06-24T06:12:42;4.83;;;4.43;;
75818;SDS011;64453;51.944;9.796;2023-06-24T06:15:09;5.23;;;4.83;;
75818;SDS011;64453;51.944;9.796;2023-06-24T06:17:37;4.40;;;4.10;;
75818;SDS011;64453;51.944;9.796;2023-06-24T06:20:06;5.03;;;4.53;;
75818;SDS011;64453;51.944;9.796;2023-06-24T06:22:34;8.57;;;4.90;;
75818;SDS011;64453;51.944;9.796;2023-06-24T06:25:03;4.60;;;4.30;;
75818;SDS011;64453;51.944;9.796;2023-06-24T06:27:31;5.63;;;4.97;;
75818;SDS011;64453;51.944;9.796;2023-06-24T06:29:58;5.70;;;5.03;;
75818;SDS011;64453;51.944;9.796;2023-06-24T06:32:25;7.70;;;5.00;;
75818;SDS011;64453;51.944;9.796;2023-06-24T06:34:52;6.60;;;5.23;;
75818;SDS011;64453;51.944;9.796;2023-06-24T06:37:20;5.10;;;4.70;;
75818;SDS011;64453;51.944;9.796;2023-06-24T06:39:47;5.30;;;4.90;;
75818;SDS011;64453;51.944;9.796;2023-06-24T06:42:15;7.10;;;5.00;;
75818;SDS011;64453;51.944;9.796;2023-06-24T06:44:42;6.50;;;4.90;;
75818;SDS011;64453;51.944;9.796;2023-06-24T06:47:10;5.40;;;4.97;;
75818;SDS011;64453;51.944;9.796;2023-06-24T06:49:37;8.40;;;4.53;;
75818;SDS011;64453;51.944;9.796;2023-06-24T06:52:05;6.10;;;5.50;;
75818;SDS011;64453;51.944;9.796;2023-06-24T06:54:34;7.77;;;5.20;;
75818;SDS011;64453;51.944;9.796;2023-06-24T06:57:01;6.83;;;5.10;;
75818;SDS011;64453;51.944;9.796;2023-06-24T06:59:30;5.97;;;4.77;;
75818;SDS011;64453;51.944;9.796;2023-06-24T07:01:57;6.57;;;5.23;;
75818;SDS011;64453;51.944;9.796;2023-06-24T07:04:24;8.80;;;5.07;;
75818;SDS011;64453;51.944;9.796;2023-06-24T07:06:51;7.03;;;5.50;;
75818;SDS011;64453;51.944;9.796;2023-06-24T07:09:18;6.03;;;4.90;;
75818;SDS011;64453;51.944;9.796;2023-06-24T07:11:47;8.47;;;5.20;;
75818;SDS011;64453;51.944;9.796;2023-06-24T07:14:13;7.37;;;4.97;;
75818;SDS011;64453;51.944;9.796;2023-06-24T07:16:40;5.30;;;4.80;;
75818;SDS011;64453;51.944;9.796;2023-06-24T07:19:08;6.00;;;4.80;;
75818;SDS011;64453;51.944;9.796;2023-06-24T07:21:35;6.53;;;4.80;;
75818;SDS011;64453;51.944;9.796;2023-06-24T07:24:03;5.00;;;4.60;;
75818;SDS011;64453;51.944;9.796;2023-06-24T07:26:31;5.87;;;5.37;;
75818;SDS011;64453;51.944;9.796;2023-06-24T07:28:59;6.07;;;4.60;;
75818;SDS011;64453;51.944;9.796;2023-06-24T07:31:26;5.33;;;4.83;;
75818;SDS011;64453;51.944;9.796;2023-06-24T07:33:53;5.53;;;4.90;;
75818;SDS011;64453;51.944;9.796;2023-06-24T07:36:20;4.63;;;4.23;;
75818;SDS011;64453;51.944;9.796;2023-06-24T07:38:47;5.17;;;4.77;;
75818;SDS011;64453;51.944;9.796;2023-06-24T07:41:14;4.83;;;4.43;;
75818;SDS011;64453;51.944;9.796;2023-06-24T07:43:41;4.43;;;4.03;;
75818;SDS011;64453;51.944;9.796;2023-06-24T07:46:09;5.23;;;4.27;;
75818;SDS011;64453;51.944;9.796;2023-06-24T07:48:36;4.60;;;4.30;;
75818;SDS011;64453;51.944;9.796;2023-06-24T07:51:03;5.43;;;4.70;;
75818;SDS011;64453;51.944;9.796;2023-06-24T07:53:30;4.27;;;3.97;;
75818;SDS011;64453;51.944;9.796;2023-06-24T07:55:58;6.47;;;5.17;;
75818;SDS011;64453;51.944;9.796;2023-06-24T07:58:25;7.03;;;4.83;;
75818;SDS011;64453;51.944;9.796;2023-06-24T08:00:52;5.03;;;4.50;;
75818;SDS011;64453;51.944;9.796;2023-06-24T08:03:20;4.63;;;4.27;;
75818;SDS011;64453;51.944;9.796;2023-06-24T08:05:48;4.13;;;3.70;;
75818;SDS011;64453;51.944;9.796;2023-06-24T08:08:15;4.87;;;4.47;;
75818;SDS011;64453;51.944;9.796;2023-06-24T08:10:43;5.37;;;4.20;;
75818;SDS011;64453;51.944;9.796;2023-06-24T08:13:10;4.50;;;4.10;;
75818;SDS011;64453;51.944;9.796;2023-06-24T08:15:37;4.90;;;4.50;;
75818;SDS011;64453;51.944;9.796;2023-06-24T08:18:04;4.63;;;4.13;;
75818;SDS011;64453;51.944;9.796;2023-06-24T08:20:32;3.87;;;3.57;;
75818;SDS011;64453;51.944;9.796;2023-06-24T08:22:59;3.93;;;3.67;;
75818;SDS011;64453;51.944;9.796;2023-06-24T08:25:26;4.53;;;4.13;;
75818;SDS011;64453;51.944;9.796;2023-06-24T08:27:53;3.80;;;3.53;;
75818;SDS011;64453;51.944;9.796;2023-06-24T08:30:20;4.50;;;3.80;;
75818;SDS011;64453;51.944;9.796;2023-06-24T08:32:46;4.13;;;3.83;;
75818;SDS011;64453;51.944;9.796;2023-06-24T08:35:14;4.27;;;3.87;;
75818;SDS011;64453;51.944;9.796;2023-06-24T08:37:42;4.20;;;3.90;;
75818;SDS011;64453;51.944;9.796;2023-06-24T08:40:09;4.43;;;4.03;;
75818;SDS011;64453;51.944;9.796;2023-06-24T08:42:37;5.80;;;4.40;;
75818;SDS011;64453;51.944;9.796;2023-06-24T08:45:04;3.80;;;3.60;;
75818;SDS011;64453;51.944;9.796;2023-06-24T08:47:32;4.70;;;4.30;;
75818;SDS011;64453;51.944;9.796;2023-06-24T08:50:03;4.43;;;4.10;;
75818;SDS011;64453;51.944;9.796;2023-06-24T08:52:35;4.93;;;3.60;;
75818;SDS011;64453;51.944;9.796;2023-06-24T08:55:06;4.37;;;3.97;;
75818;SDS011;64453;51.944;9.796;2023-06-24T08:57:36;4.30;;;4.00;;
75818;SDS011;64453;51.944;9.796;2023-06-24T09:00:04;4.57;;;4.00;;
75818;SDS011;64453;51.944;9.796;2023-06-24T09:02:35;3.60;;;3.30;;
75818;SDS011;64453;51.944;9.796;2023-06-24T09:05:03;3.47;;;3.27;;
75818;SDS011;64453;51.944;9.796;2023-06-24T09:07:31;3.97;;;3.50;;
75818;SDS011;64453;51.944;9.796;2023-06-24T09:09:57;3.73;;;3.43;;
75818;SDS011;64453;51.944;9.796;2023-06-24T09:12:27;3.70;;;3.40;;
75818;SDS011;64453;51.944;9.796;2023-06-24T09:14:54;7.80;;;3.77;;
75818;SDS011;64453;51.944;9.796;2023-06-24T09:17:21;3.93;;;3.73;;
75818;SDS011;64453;51.944;9.796;2023-06-24T09:19:48;3.43;;;3.10;;
75818;SDS011;64453;51.944;9.796;2023-06-24T09:22:16;3.60;;;3.30;;
75818;SDS011;64453;51.944;9.796;2023-06-24T09:24:44;3.13;;;2.93;;
75818;SDS011;64453;51.944;9.796;2023-06-24T09:27:13;3.60;;;3.00;;
75818;SDS011;64453;51.944;9.796;2023-06-24T09:29:42;3.47;;;2.93;;
75818;SDS011;64453;51.944;9.796;2023-06-24T09:32:10;3.40;;;3.07;;
75818;SDS011;64453;51.944;9.796;2023-06-24T09:34:38;5.30;;;2.60;;
75818;SDS011;64453;51.944;9.796;2023-06-24T09:37:05;3.97;;;3.10;;
75818;SDS011;64453;51.944;9.796;2023-06-24T09:39:35;3.60;;;3.30;;
75818;SDS011;64453;51.944;9.796;2023-06-24T09:42:04;3.97;;;3.00;;
75818;SDS011;64453;51.944;9.796;2023-06-24T09:44:32;3.17;;;2.97;;
75818;SDS011;64453;51.944;9.796;2023-06-24T09:47:01;3.37;;;3.00;;
75818;SDS011;64453;51.944;9.796;2023-06-24T09:49:29;3.00;;;2.80;;
75818;SDS011;64453;51.944;9.796;2023-06-24T09:51:56;3.40;;;3.10;;
75818;SDS011;64453;51.944;9.796;2023-06-24T09:54:25;3.53;;;3.17;;
75818;SDS011;64453;51.944;9.796;2023-06-24T09:56:54;3.10;;;2.90;;
75818;SDS011;64453;51.944;9.796;2023-06-24T09:59:27;3.00;;;2.80;;
75818;SDS011;64453;51.944;9.796;2023-06-24T10:01:58;2.70;;;2.50;;
75818;SDS011;64453;51.944;9.796;2023-06-24T10:04:27;3.07;;;2.87;;
75818;SDS011;64453;51.944;9.796;2023-06-24T10:06:55;2.70;;;2.50;;
75818;SDS011;64453;51.944;9.796;2023-06-24T10:09:22;3.53;;;3.23;;
75818;SDS011;64453;51.944;9.796;2023-06-24T10:11:49;3.17;;;2.90;;
75818;SDS011;64453;51.944;9.796;2023-06-24T10:14:16;2.87;;;2.67;;
75818;SDS011;64453;51.944;9.796;2023-06-24T10:16:44;4.53;;;3.23;;
75818;SDS011;64453;51.944;9.796;2023-06-24T10:19:14;3.90;;;3.10;;
75818;SDS011;64453;51.944;9.796;2023-06-24T10:21:49;4.20;;;3.40;;
75818;SDS011;64453;51.944;9.796;2023-06-24T10:24:27;5.07;;;3.10;;
75818;SDS011;64453;51.944;9.796;2023-06-24T10:27:00;3.15;;;2.95;;
75818;SDS011;64453;51.944;9.796;2023-06-24T10:29:31;3.27;;;3.07;;
75818;SDS011;64453;51.944;9.796;2023-06-24T10:32:01;8.30;;;3.53;;
75818;SDS011;64453;51.944;9.796;2023-06-24T10:34:31;3.20;;;3.00;;
75818;SDS011;64453;51.944;9.796;2023-06-24T10:37:02;3.25;;;2.80;;
75818;SDS011;64453;51.944;9.796;2023-06-24T10:39:37;4.28;;;3.00;;
75818;SDS011;64453;51.944;9.796;2023-06-24T10:45:00;4.10;;;3.70;;
75818;SDS011;64453;51.944;9.796;2023-06-24T10:47:40;3.65;;;3.13;;
75818;SDS011;64453;51.944;9.796;2023-06-24T10:50:10;2.85;;;2.65;;
75818;SDS011;64453;51.944;9.796;2023-06-24T10:52:40;4.07;;;3.67;;
75818;SDS011;64453;51.944;9.796;2023-06-24T10:55:09;3.47;;;3.17;;
75818;SDS011;64453;51.944;9.796;2023-06-24T10:57:37;2.92;;;2.72;;
75818;SDS011;64453;51.944;9.796;2023-06-24T11:00:04;3.10;;;2.90;;
75818;SDS011;64453;51.944;9.796;2023-06-24T11:02:33;3.17;;;2.97;;
75818;SDS011;64453;51.944;9.796;2023-06-24T11:05:01;3.53;;;3.20;;
75818;SDS011;64453;51.944;9.796;2023-06-24T11:07:30;2.92;;;2.72;;
75818;SDS011;64453;51.944;9.796;2023-06-24T11:10:02;4.13;;;2.97;;
75818;SDS011;64453;51.944;9.796;2023-06-24T11:12:31;3.17;;;2.97;;
75818;SDS011;64453;51.944;9.796;2023-06-24T11:15:00;4.65;;;3.13;;
75818;SDS011;64453;51.944;9.796;2023-06-24T11:17:29;5.60;;;3.25;;
75818;SDS011;64453;51.944;9.796;2023-06-24T11:19:57;3.58;;;3.22;;
75818;SDS011;64453;51.944;9.796;2023-06-24T11:22:25;3.70;;;3.35;;
75818;SDS011;64453;51.944;9.796;2023-06-24T11:24:53;4.00;;;3.60;;
75818;SDS011;64453;51.944;9.796;2023-06-24T11:27:26;4.10;;;3.78;;
75818;SDS011;64453;51.944;9.796;2023-06-24T11:29:54;3.33;;;3.10;;
75818;SDS011;64453;51.944;9.796;2023-06-24T11:32:25;4.30;;;4.00;;
75818;SDS011;64453;51.944;9.796;2023-06-24T11:35:01;4.03;;;3.67;;
75818;SDS011;64453;51.944;9.796;2023-06-24T11:37:30;3.67;;;3.33;;
75818;SDS011;64453;51.944;9.796;2023-06-24T11:40:02;3.85;;;3.58;;
75818;SDS011;64453;51.944;9.796;2023-06-24T11:42:32;4.10;;;3.80;;
75818;SDS011;64453;51.944;9.796;2023-06-24T11:45:01;3.92;;;3.63;;
75818;SDS011;64453;51.944;9.796;2023-06-24T11:47:31;5.07;;;4.15;;
75818;SDS011;64453;51.944;9.796;2023-06-24T11:49:59;8.10;;;4.65;;
75818;SDS011;64453;51.944;9.796;2023-06-24T11:55:11;4.68;;;4.22;;
75818;SDS011;64453;51.944;9.796;2023-06-24T11:57:48;4.28;;;3.88;;
75818;SDS011;64453;51.944;9.796;2023-06-24T12:00:19;4.65;;;4.25;;
75818;SDS011;64453;51.944;9.796;2023-06-24T12:02:49;4.45;;;4.15;;
75818;SDS011;64453;51.944;9.796;2023-06-24T12:05:23;4.60;;;4.20;;
75818;SDS011;64453;51.944;9.796;2023-06-24T12:07:56;5.18;;;4.18;;
75818;SDS011;64453;51.944;9.796;2023-06-24T12:10:26;3.80;;;3.50;;
75818;SDS011;64453;51.944;9.796;2023-06-24T12:12:59;5.93;;;4.20;;
75818;SDS011;64453;51.944;9.796;2023-06-24T12:15:26;3.85;;;3.60;;
75818;SDS011;64453;51.944;9.796;2023-06-24T12:17:54;4.43;;;4.03;;
75818;SDS011;64453;51.944;9.796;2023-06-24T12:20:21;5.13;;;4.05;;
75818;SDS011;64453;51.944;9.796;2023-06-24T12:22:50;3.70;;;3.50;;
75818;SDS011;64453;51.944;9.796;2023-06-24T12:25:17;6.50;;;4.32;;
75818;SDS011;64453;51.944;9.796;2023-06-24T12:27:45;4.47;;;4.05;;
75818;SDS011;64453;51.944;9.796;2023-06-24T12:30:13;4.07;;;3.78;;
75818;SDS011;64453;51.944;9.796;2023-06-24T12:32:41;4.55;;;4.15;;
75818;SDS011;64453;51.944;9.796;2023-06-24T12:35:09;4.20;;;3.90;;
75818;SDS011;64453;51.944;9.796;2023-06-24T12:37:36;4.25;;;3.85;;
75818;SDS011;64453;51.944;9.796;2023-06-24T12:40:04;4.18;;;3.88;;
75818;SDS011;64453;51.944;9.796;2023-06-24T12:42:33;3.60;;;3.30;;
75818;SDS011;64453;51.944;9.796;2023-06-24T12:45:00;4.28;;;3.97;;
75818;SDS011;64453;51.944;9.796;2023-06-24T12:47:28;4.00;;;3.70;;
75818;SDS011;64453;51.944;9.796;2023-06-24T12:49:56;4.07;;;3.75;;
75818;SDS011;64453;51.944;9.796;2023-06-24T12:52:23;4.47;;;4.10;;
75818;SDS011;64453;51.944;9.796;2023-06-24T12:54:50;4.78;;;4.32;;
75818;SDS011;64453;51.944;9.796;2023-06-24T12:57:17;4.88;;;4.47;;
75818;SDS011;64453;51.944;9.796;2023-06-24T12:59:44;4.75;;;4.00;;
75818;SDS011;64453;51.944;9.796;2023-06-24T13:02:11;3.60;;;3.40;;
75818;SDS011;64453;51.944;9.796;2023-06-24T13:04:40;4.00;;;3.70;;
75818;SDS011;64453;51.944;9.796;2023-06-24T13:07:06;4.82;;;4.22;;
75818;SDS011;64453;51.944;9.796;2023-06-24T13:09:34;3.90;;;3.63;;
75818;SDS011;64453;51.944;9.796;2023-06-24T13:12:01;3.90;;;3.42;;
75818;SDS011;64453;51.944;9.796;2023-06-24T13:14:29;3.90;;;3.60;;
75818;SDS011;64453;51.944;9.796;2023-06-24T13:16:56;4.80;;;4.28;;
75818;SDS011;64453;51.944;9.796;2023-06-24T13:19:23;4.68;;;4.18;;
75818;SDS011;64453;51.944;9.796;2023-06-24T13:21:51;6.20;;;3.65;;
75818;SDS011;64453;51.944;9.796;2023-06-24T13:24:18;5.57;;;3.83;;
75818;SDS011;64453;51.944;9.796;2023-06-24T13:26:45;4.18;;;3.88;;
75818;SDS011;64453;51.944;9.796;2023-06-24T13:29:12;5.28;;;3.90;;
75818;SDS011;64453;51.944;9.796;2023-06-24T13:31:39;4.30;;;3.90;;
75818;SDS011;64453;51.944;9.796;2023-06-24T13:34:06;3.83;;;3.53;;
75818;SDS011;64453;51.944;9.796;2023-06-24T13:36:33;4.13;;;3.72;;
75818;SDS011;64453;51.944;9.796;2023-06-24T13:39:03;3.83;;;3.53;;
75818;SDS011;64453;51.944;9.796;2023-06-24T13:41:32;6.10;;;4.03;;
75818;SDS011;64453;51.944;9.796;2023-06-24T13:43:59;4.05;;;3.75;;
75818;SDS011;64453;51.944;9.796;2023-06-24T13:46:27;4.50;;;3.40;;
75818;SDS011;64453;51.944;9.796;2023-06-24T13:48:55;3.53;;;3.22;;
75818;SDS011;64453;51.944;9.796;2023-06-24T13:51:23;3.78;;;3.58;;
75818;SDS011;64453;51.944;9.796;2023-06-24T13:53:51;3.63;;;3.20;;
75818;SDS011;64453;51.944;9.796;2023-06-24T13:56:21;3.63;;;3.42;;
75818;SDS011;64453;51.944;9.796;2023-06-24T13:58:49;3.30;;;3.00;;
75818;SDS011;64453;51.944;9.796;2023-06-24T14:01:17;3.67;;;3.45;;
75818;SDS011;64453;51.944;9.796;2023-06-24T14:03:45;3.90;;;3.60;;
75818;SDS011;64453;51.944;9.796;2023-06-24T14:06:13;4.03;;;3.72;;
75818;SDS011;64453;51.944;9.796;2023-06-24T14:08:41;3.67;;;3.40;;
75818;SDS011;64453;51.944;9.796;2023-06-24T14:11:08;3.72;;;3.38;;
75818;SDS011;64453;51.944;9.796;2023-06-24T14:13:37;4.05;;;3.75;;
75818;SDS011;64453;51.944;9.796;2023-06-24T14:16:04;3.88;;;3.58;;
75818;SDS011;64453;51.944;9.796;2023-06-24T14:18:34;3.70;;;3.45;;
75818;SDS011;64453;51.944;9.796;2023-06-24T14:21:06;4.10;;;3.80;;
75818;SDS011;64453;51.944;9.796;2023-06-24T14:23:34;3.17;;;3.08;;
75818;SDS011;64453;51.944;9.796;2023-06-24T14:26:02;3.70;;;3.50;;
75818;SDS011;64453;51.944;9.796;2023-06-24T14:28:29;3.85;;;3.55;;
75818;SDS011;64453;51.944;9.796;2023-06-24T14:30:58;4.03;;;3.72;;
75818;SDS011;64453;51.944;9.796;2023-06-24T14:33:24;3.58;;;3.28;;
75818;SDS011;64453;51.944;9.796;2023-06-24T14:35:51;4.38;;;3.85;;
75818;SDS011;64453;51.944;9.796;2023-06-24T14:38:18;3.78;;;3.47;;
75818;SDS011;64453;51.944;9.796;2023-06-24T14:40:46;4.25;;;3.95;;
75818;SDS011;64453;51.944;9.796;2023-06-24T14:43:16;4.28;;;3.88;;
75818;SDS011;64453;51.944;9.796;2023-06-24T14:45:44;4.18;;;3.88;;
75818;SDS011;64453;51.944;9.796;2023-06-24T14:48:12;3.90;;;3.60;;
75818;SDS011;64453;51.944;9.796;2023-06-24T14:50:39;4.07;;;3.75;;
75818;SDS011;64453;51.944;9.796;2023-06-24T14:53:06;4.15;;;3.85;;
75818;SDS011;64453;51.944;9.796;2023-06-24T14:55:33;4.40;;;3.80;;
75818;SDS011;64453;51.944;9.796;2023-06-24T14:58:00;4.18;;;3.35;;